Time;durP1;ratioP1;P1;durP2;ratioP2;P2;SDS_P1;SDS_P2;PMS_P1;PMS_P2;Temp;Humidity;BMP_temperature;BMP_pressure;BME280_temperature;BME280_humidity;BME280_pressure;Samples;Min_cycle;Max_cycle;Signal;HPM_P1;HPM_P2
2021/12/05 00:24:46;;;;;;;5.88;2.85;;;;;;;;;;6287203;28;20123;-81
2021/12/05 00:28:01;;;;;;;8.98;3.20;;;;;;;;;;6297149;28;20138;-81
2021/12/05 00:31:15;;;;;;;6.78;2.85;;;;;;;;;;6296853;28;20044;-80
2021/12/05 00:44:54;;;;;;;6.28;3.10;;;;;;;;;;6301800;28;20565;-81
2021/12/05 01:07:16;;;;;;;2.97;1.98;;;;;;;;;;6276442;28;20126;-78
2021/12/05 01:17:02;;;;;;;6.50;2.72;;;;;;;;;;6297076;28;20516;-80
2021/12/05 01:20:13;;;;;;;4.85;2.22;;;;;;;;;;6297871;28;20668;-77
2021/12/05 01:27:02;;;;;;;6.82;2.50;;;;;;;;;;6313809;28;19928;-80
2021/12/05 01:31:01;;;;;;;9.57;3.28;;;;;;;;;;6272371;28;20266;-80
2021/12/05 01:33:43;;;;;;;7.47;2.80;;;;;;;;;;6258414;28;20460;-81
2021/12/05 01:37:08;;;;;;;5.30;2.33;;;;;;;;;;6287343;28;20040;-80
2021/12/05 01:59:57;;;;;;;7.72;2.63;;;;;;;;;;6284407;28;20519;-81
2021/12/05 02:16:17;;;;;;;8.43;2.40;;;;;;;;;;6276272;28;20045;-78
2021/12/05 02:30:04;;;;;;;5.88;2.00;;;;;;;;;;6316333;28;20048;-81
2021/12/05 02:40:06;;;;;;;9.30;1.95;;;;;;;;;;6287934;28;20044;-80
2021/12/05 02:43:15;;;;;;;3.78;2.10;;;;;;;;;;6275793;28;20055;-80
2021/12/05 02:46:20;;;;;;;2.58;1.85;;;;;;;;;;6275425;28;20050;-81
2021/12/05 02:49:24;;;;;;;11.98;2.47;;;;;;;;;;6258751;28;20048;-81
2021/12/05 02:52:32;;;;;;;5.32;1.75;;;;;;;;;;6289687;28;20051;-80
2021/12/05 02:55:39;;;;;;;6.35;1.55;;;;;;;;;;6292806;28;20048;-80
2021/12/05 02:58:57;;;;;;;8.18;1.83;;;;;;;;;;6278616;28;20050;-80
2021/12/05 03:02:07;;;;;;;11.10;2.40;;;;;;;;;;6299694;28;20044;-81
2021/12/05 03:05:12;;;;;;;6.28;2.13;;;;;;;;;;6284163;28;20094;-81
2021/12/05 03:08:14;;;;;;;8.02;2.20;;;;;;;;;;6275975;28;20048;-81
2021/12/05 03:11:16;;;;;;;5.40;1.83;;;;;;;;;;6272335;28;20037;-80
2021/12/05 03:14:18;;;;;;;5.55;1.95;;;;;;;;;;6275591;28;20073;-80
2021/12/05 03:17:20;;;;;;;6.70;1.83;;;;;;;;;;6272525;28;20658;-81
2021/12/05 03:20:22;;;;;;;5.72;1.70;;;;;;;;;;6258011;28;20178;-80
2021/12/05 03:23:25;;;;;;;6.38;1.77;;;;;;;;;;6280882;28;20409;-81
2021/12/05 03:26:31;;;;;;;6.25;1.85;;;;;;;;;;6257806;28;20445;-81
2021/12/05 03:29:33;;;;;;;6.47;1.95;;;;;;;;;;6293726;28;20040;-81
2021/12/05 03:32:37;;;;;;;6.25;1.63;;;;;;;;;;6274901;28;20170;-82
2021/12/05 03:35:40;;;;;;;5.75;1.63;;;;;;;;;;6258233;28;20093;-80
2021/12/05 03:38:42;;;;;;;8.52;1.73;;;;;;;;;;6283362;28;20051;-80
2021/12/05 03:41:47;;;;;;;7.90;2.05;;;;;;;;;;6283943;28;20040;-80
2021/12/05 03:44:51;;;;;;;5.10;1.65;;;;;;;;;;6296920;28;20036;-81
2021/12/05 03:47:53;;;;;;;5.07;2.05;;;;;;;;;;6315440;28;20055;-80
2021/12/05 03:50:58;;;;;;;7.60;1.83;;;;;;;;;;6277386;28;20049;-80
2021/12/05 03:54:05;;;;;;;5.50;2.42;;;;;;;;;;6282509;28;20052;-80
2021/12/05 03:57:08;;;;;;;5.68;1.70;;;;;;;;;;6274139;28;20044;-79
2021/12/05 04:00:21;;;;;;;5.18;1.55;;;;;;;;;;6315278;28;20040;-79
2021/12/05 04:03:27;;;;;;;8.57;1.90;;;;;;;;;;6296610;28;20047;-79
2021/12/05 04:06:31;;;;;;;8.52;2.13;;;;;;;;;;6288415;28;20036;-80
2021/12/05 04:09:34;;;;;;;9.87;1.67;;;;;;;;;;6286740;28;20040;-79
2021/12/05 04:12:38;;;;;;;5.55;1.95;;;;;;;;;;6255472;28;20465;-79
2021/12/05 04:15:42;;;;;;;6.13;1.75;;;;;;;;;;6272726;28;20047;-80
2021/12/05 04:18:46;;;;;;;7.90;1.75;;;;;;;;;;6297141;28;20123;-80
2021/12/05 04:21:49;;;;;;;5.15;1.52;;;;;;;;;;6275507;28;20505;-82
2021/12/05 04:24:52;;;;;;;10.13;1.77;;;;;;;;;;6274093;28;20166;-79
2021/12/05 04:27:55;;;;;;;6.63;1.70;;;;;;;;;;6260221;28;20083;-78
2021/12/05 04:30:58;;;;;;;4.70;1.60;;;;;;;;;;6272988;28;20110;-81
2021/12/05 04:34:00;;;;;;;4.47;1.60;;;;;;;;;;6274820;28;20080;-81
2021/12/05 04:37:02;;;;;;;5.30;1.50;;;;;;;;;;6272938;28;20046;-80
2021/12/05 04:40:08;;;;;;;4.22;1.60;;;;;;;;;;6291464;28;20139;-81
2021/12/05 04:43:11;;;;;;;10.98;1.58;;;;;;;;;;6275011;28;20401;-80
2021/12/05 04:46:19;;;;;;;4.32;1.48;;;;;;;;;;6272545;28;20032;-79
2021/12/05 04:49:21;;;;;;;5.57;1.42;;;;;;;;;;6272559;28;20048;-79
2021/12/05 04:52:25;;;;;;;;;;;;;;;;;;6287753;28;20122;-80
2021/12/05 04:55:27;;;;;;;10.18;2.28;;;;;;;;;;6281151;28;19924;-81
2021/12/05 04:58:30;;;;;;;10.65;2.58;;;;;;;;;;6296074;28;20048;-81
2021/12/05 05:01:33;;;;;;;5.55;1.60;;;;;;;;;;6298958;28;20123;-81
2021/12/05 05:04:45;;;;;;;6.88;1.40;;;;;;;;;;6298543;28;20174;-81
2021/12/05 05:07:48;;;;;;;7.65;1.60;;;;;;;;;;6296392;28;20044;-81
2021/12/05 05:10:50;;;;;;;6.32;1.67;;;;;;;;;;6272863;28;20094;-81
2021/12/05 05:13:52;;;;;;;7.45;1.60;;;;;;;;;;6267296;28;20099;-81
2021/12/05 05:16:55;;;;;;;6.70;1.23;;;;;;;;;;6273650;28;20062;-81
2021/12/05 05:20:02;;;;;;;4.70;1.20;;;;;;;;;;6256390;28;20451;-82
2021/12/05 05:46:18;;;;;;;6.00;1.35;;;;;;;;;;6298749;28;20805;-80
2021/12/05 05:49:24;;;;;;;6.22;1.70;;;;;;;;;;6269411;28;20040;-82
2021/12/05 05:52:27;;;;;;;8.20;1.58;;;;;;;;;;6277556;28;20036;-81
2021/12/05 05:55:29;;;;;;;6.97;1.85;;;;;;;;;;6274985;28;20051;-82
2021/12/05 06:05:10;;;;;;;6.05;2.28;;;;;;;;;;6315170;28;20416;-80
2021/12/05 06:08:12;;;;;;;7.45;1.58;;;;;;;;;;6288891;28;20139;-80
2021/12/05 06:11:17;;;;;;;5.55;1.58;;;;;;;;;;6295766;28;20255;-81
2021/12/05 06:14:18;;;;;;;5.95;1.42;;;;;;;;;;6269971;28;20174;-79
2021/12/05 06:17:20;;;;;;;7.60;1.70;;;;;;;;;;6271791;28;20476;-82
2021/12/05 06:20:26;;;;;;;13.82;2.92;;;;;;;;;;6288701;28;20037;-80
2021/12/05 06:23:33;;;;;;;6.30;2.10;;;;;;;;;;6278592;28;20051;-81
2021/12/05 06:26:35;;;;;;;7.85;2.50;;;;;;;;;;6297079;28;20040;-79
2021/12/05 06:29:43;;;;;;;11.18;2.92;;;;;;;;;;6285447;28;20132;-79
2021/12/05 06:49:15;;;;;;;7.82;2.75;;;;;;;;;;6195785;28;20049;-80
2021/12/05 06:52:17;;;;;;;10.35;3.38;;;;;;;;;;6196131;28;20121;-79
2021/12/05 06:55:19;;;;;;;10.77;2.72;;;;;;;;;;6296563;28;20119;-80
2021/12/05 06:58:21;;;;;;;7.43;2.78;;;;;;;;;;6291929;28;20040;-81
2021/12/05 07:01:23;;;;;;;5.13;2.70;;;;;;;;;;6275736;28;20040;-82
2021/12/05 07:07:36;;;;;;;7.03;2.97;;;;;;;;;;6295692;28;20050;-81
2021/12/05 07:10:47;;;;;;;10.13;2.80;;;;;;;;;;6303293;28;20052;-79
2021/12/05 07:20:42;;;;;;;8.63;3.25;;;;;;;;;;6281181;28;20382;-78
2021/12/05 07:23:56;;;;;;;26.20;6.10;;;;;;;;;;6274660;28;20044;-80
2021/12/05 07:43:23;;;;;;;42.80;18.13;;;;;;;;;;6303855;28;20109;-81
2021/12/05 07:46:29;;;;;;;9.88;5.22;;;;;;;;;;6301032;28;20119;-79
2021/12/05 07:49:32;;;;;;;42.10;15.80;;;;;;;;;;6302342;28;20047;-81
2021/12/05 07:52:37;;;;;;;42.50;16.30;;;;;;;;;;6271728;28;20049;-81
2021/12/05 07:55:43;;;;;;;17.15;6.85;;;;;;;;;;6284889;28;20051;-80
2021/12/05 08:15:28;;;;;;;13.05;6.85;;;;;;;;;;6288505;28;20040;-82
2021/12/05 08:18:31;;;;;;;12.52;6.05;;;;;;;;;;6290217;28;20143;-80
2021/12/05 08:21:34;;;;;;;12.25;5.80;;;;;;;;;;6297194;28;20039;-80
2021/12/05 08:24:40;;;;;;;39.65;12.20;;;;;;;;;;6296119;28;20051;-82
2021/12/05 08:27:48;;;;;;;49.15;19.67;;;;;;;;;;6294238;28;20047;-81
2021/12/05 08:31:03;;;;;;;29.85;12.20;;;;;;;;;;6293960;28;20108;-82
2021/12/05 10:03:06;;;;;;;6.65;4.88;;;;;;;;;;6322007;28;20093;-79
2021/12/05 10:12:57;;;;;;;4.95;3.30;;;;;;;;;;6299158;28;20050;-80
2021/12/05 10:36:24;;;;;;;8.48;3.45;;;;;;;;;;6298437;28;20068;-80
2021/12/05 10:39:26;;;;;;;4.90;2.22;;;;;;;;;;6282085;28;20052;-84
2021/12/05 10:42:40;;;;;;;4.30;2.25;;;;;;;;;;6279896;28;20040;-84
2021/12/05 10:45:50;;;;;;;33.28;11.80;;;;;;;;;;6306065;28;20223;-82
2021/12/05 10:49:03;;;;;;;3.42;2.15;;;;;;;;;;6282827;28;20041;-82
2021/12/05 10:52:12;;;;;;;4.13;1.93;;;;;;;;;;6283922;28;20119;-79
2021/12/05 10:55:28;;;;;;;4.60;2.40;;;;;;;;;;6293493;28;20048;-82
2021/12/05 10:58:45;;;;;;;5.95;3.80;;;;;;;;;;6295241;28;20147;-82
2021/12/05 11:01:51;;;;;;;13.52;4.55;;;;;;;;;;6269882;28;20039;-82
2021/12/05 11:04:54;;;;;;;6.63;3.47;;;;;;;;;;6284120;28;20045;-83
2021/12/05 11:07:56;;;;;;;7.45;3.70;;;;;;;;;;6293252;28;20108;-83
2021/12/05 11:11:12;;;;;;;4.22;2.30;;;;;;;;;;6277999;28;20118;-83
2021/12/05 11:14:22;;;;;;;3.45;2.20;;;;;;;;;;6296101;28;20570;-84
2021/12/05 11:17:29;;;;;;;3.00;2.20;;;;;;;;;;6301320;28;20138;-85
2021/12/05 11:20:34;;;;;;;4.80;2.40;;;;;;;;;;6301327;28;20046;-85
2021/12/05 11:23:35;;;;;;;2.78;2.25;;;;;;;;;;6297697;28;20878;-82
2021/12/05 11:26:39;;;;;;;6.13;2.70;;;;;;;;;;6296475;28;20044;-82
2021/12/05 11:29:52;;;;;;;3.42;2.00;;;;;;;;;;6314912;28;20044;-80
2021/12/05 11:32:53;;;;;;;3.95;1.90;;;;;;;;;;6299776;28;20054;-81
2021/12/05 11:36:02;;;;;;;4.32;1.90;;;;;;;;;;6315097;28;20845;-81
2021/12/05 11:39:23;;;;;;;4.85;1.58;;;;;;;;;;6296059;28;20048;-83
2021/12/05 11:42:24;;;;;;;2.50;1.10;;;;;;;;;;6312239;28;20095;-80
2021/12/05 11:45:28;;;;;;;3.47;1.40;;;;;;;;;;6279400;28;20040;-82
2021/12/05 11:48:56;;;;;;;6.88;2.70;;;;;;;;;;6289782;28;20044;-82
2021/12/05 11:51:59;;;;;;;4.18;1.95;;;;;;;;;;6276891;28;20046;-83
2021/12/05 11:55:00;;;;;;;5.07;2.67;;;;;;;;;;6294633;28;20055;-84
2021/12/05 11:58:14;;;;;;;3.42;1.75;;;;;;;;;;6277511;28;20186;-82
2021/12/05 12:01:15;;;;;;;;;;;;;;;;;;6313591;28;20520;-82
2021/12/05 12:04:21;;;;;;;6.35;2.20;;;;;;;;;;6294505;28;19920;-82
2021/12/05 12:07:38;;;;;;;4.72;2.22;;;;;;;;;;6302936;28;20040;-83
2021/12/05 12:10:42;;;;;;;4.30;1.67;;;;;;;;;;6289165;28;20121;-85
2021/12/05 12:13:46;;;;;;;2.13;1.30;;;;;;;;;;6275363;28;20040;-83
2021/12/05 12:16:50;;;;;;;3.83;2.65;;;;;;;;;;6312770;28;20130;-82
2021/12/05 12:19:54;;;;;;;2.25;1.52;;;;;;;;;;6313314;28;20043;-83
2021/12/05 12:22:56;;;;;;;4.50;2.42;;;;;;;;;;6308152;28;20452;-85
2021/12/05 12:26:01;;;;;;;4.15;1.70;;;;;;;;;;6287879;28;20054;-81
2021/12/05 12:29:04;;;;;;;2.35;1.30;;;;;;;;;;6304179;28;20126;-82
2021/12/05 12:32:12;;;;;;;2.75;1.80;;;;;;;;;;6314551;28;20054;-82
2021/12/05 12:35:18;;;;;;;2.00;1.50;;;;;;;;;;6296207;28;20577;-80
2021/12/05 12:38:23;;;;;;;3.17;1.10;;;;;;;;;;6279137;28;20072;-83
2021/12/05 12:41:25;;;;;;;38.15;10.40;;;;;;;;;;6269340;28;20052;-82
2021/12/05 12:44:27;;;;;;;4.50;3.03;;;;;;;;;;6297292;28;20126;-82
2021/12/05 12:47:39;;;;;;;5.40;2.70;;;;;;;;;;6304045;28;20110;-85
2021/12/05 12:50:51;;;;;;;2.35;1.70;;;;;;;;;;6294222;28;20069;-83
2021/12/05 12:53:58;;;;;;;3.78;1.58;;;;;;;;;;6294647;28;20044;-83
2021/12/05 12:57:01;;;;;;;3.83;1.55;;;;;;;;;;6313338;28;20063;-83
2021/12/05 13:00:08;;;;;;;;;;;;;;;;;;6304938;28;20067;-84
2021/12/05 13:03:26;;;;;;;2.28;1.45;;;;;;;;;;6312528;28;20011;-83
2021/12/05 13:10:09;;;;;;;10.20;5.18;;;;;;;;;;6287073;28;20048;-85
2021/12/05 13:13:25;;;;;;;11.52;8.25;;;;;;;;;;6276770;28;20130;-83
2021/12/05 13:16:32;;;;;;;5.07;2.97;;;;;;;;;;6312072;28;20040;-83
2021/12/05 13:19:34;;;;;;;12.75;9.95;;;;;;;;;;6313450;28;20420;-87
2021/12/05 13:23:03;;;;;;;28.02;17.10;;;;;;;;;;6303277;28;20040;-84
2021/12/05 13:26:19;;;;;;;10.88;5.47;;;;;;;;;;6269984;28;20148;-81
2021/12/05 13:29:23;;;;;;;11.40;6.75;;;;;;;;;;6284507;28;20044;-82
2021/12/05 13:32:29;;;;;;;12.48;7.68;;;;;;;;;;6290307;28;20508;-83
2021/12/05 13:35:34;;;;;;;10.70;5.45;;;;;;;;;;6270907;28;20044;-81
2021/12/05 13:38:40;;;;;;;24.15;13.63;;;;;;;;;;6295985;28;20040;-82
2021/12/05 13:41:42;;;;;;;11.80;5.78;;;;;;;;;;6304557;28;20041;-82
2021/12/05 13:45:05;;;;;;;7.88;3.50;;;;;;;;;;6292821;28;20424;-83
2021/12/05 13:48:19;;;;;;;10.02;5.43;;;;;;;;;;6282999;28;20045;-82
2021/12/05 13:51:23;;;;;;;15.15;7.18;;;;;;;;;;6277814;28;20052;-82
2021/12/05 13:54:24;;;;;;;11.45;5.75;;;;;;;;;;6288266;28;20128;-82
2021/12/05 13:57:26;;;;;;;6.82;3.63;;;;;;;;;;6274975;28;20186;-83
2021/12/05 14:00:42;;;;;;;5.13;2.58;;;;;;;;;;6277451;28;20048;-81
2021/12/05 14:04:23;;;;;;;5.53;3.50;;;;;;;;;;6286496;28;20056;-81
2021/12/05 14:07:26;;;;;;;5.60;3.83;;;;;;;;;;6299327;28;20103;-84
2021/12/05 14:10:43;;;;;;;6.53;3.40;;;;;;;;;;6286127;28;20471;-84
2021/12/05 14:13:45;;;;;;;20.02;11.32;;;;;;;;;;6306828;28;20170;-83
2021/12/05 14:16:48;;;;;;;13.15;7.68;;;;;;;;;;6275349;28;20040;-83
2021/12/05 14:20:17;;;;;;;24.40;14.13;;;;;;;;;;6290825;28;20047;-82
2021/12/05 14:23:22;;;;;;;14.30;11.38;;;;;;;;;;6270320;28;20508;-82
2021/12/05 14:26:26;;;;;;;14.50;6.03;;;;;;;;;;6312196;28;20070;-81
2021/12/05 14:29:31;;;;;;;2.63;1.35;;;;;;;;;;6285181;28;20138;-81
2021/12/05 14:32:37;;;;;;;2.72;1.40;;;;;;;;;;6269985;28;20045;-85
2021/12/05 14:35:40;;;;;;;3.25;1.45;;;;;;;;;;6288246;28;20051;-81
2021/12/05 14:38:42;;;;;;;2.88;1.65;;;;;;;;;;6293876;28;20055;-83
2021/12/05 14:41:46;;;;;;;3.58;1.60;;;;;;;;;;6276522;28;20553;-86
2021/12/05 14:44:50;;;;;;;3.53;2.33;;;;;;;;;;6276295;28;20189;-81
2021/12/05 14:47:55;;;;;;;6.70;3.85;;;;;;;;;;6294099;28;20052;-81
2021/12/05 14:51:29;;;;;;;14.07;6.03;;;;;;;;;;6294618;28;20059;-83
2021/12/05 14:54:35;;;;;;;10.27;5.18;;;;;;;;;;6305478;28;20103;-81
2021/12/05 14:58:05;;;;;;;2.88;1.60;;;;;;;;;;6316589;28;20048;-80
2021/12/05 15:01:07;;;;;;;2.58;1.23;;;;;;;;;;6294629;28;20445;-78
2021/12/05 15:04:10;;;;;;;1.40;1.13;;;;;;;;;;6311762;28;20089;-81
2021/12/05 15:07:12;;;;;;;;;;;;;;;;;;6321724;28;20119;-83
2021/12/05 15:10:20;;;;;;;3.15;2.50;;;;;;;;;;6287451;28;19952;-84
2021/12/05 15:13:22;;;;;;;4.85;2.20;;;;;;;;;;6286643;28;20055;-83
2021/12/05 15:16:23;;;;;;;5.03;2.60;;;;;;;;;;6278951;28;20044;-83
2021/12/05 15:19:25;;;;;;;5.03;2.10;;;;;;;;;;6295211;28;20464;-84
2021/12/05 15:22:28;;;;;;;3.97;1.73;;;;;;;;;;6278983;28;20618;-84
2021/12/05 15:25:32;;;;;;;2.55;1.10;;;;;;;;;;6284595;28;20055;-83
2021/12/05 15:28:36;;;;;;;3.00;1.73;;;;;;;;;;6301960;28;20400;-82
2021/12/05 15:31:40;;;;;;;3.15;2.08;;;;;;;;;;6302353;28;20059;-83
2021/12/05 15:34:42;;;;;;;9.10;5.55;;;;;;;;;;6296541;28;20170;-85
2021/12/05 15:37:52;;;;;;;5.72;3.22;;;;;;;;;;6295240;28;20122;-84
2021/12/05 15:41:00;;;;;;;4.50;3.33;;;;;;;;;;6298018;28;20049;-83
2021/12/05 15:44:01;;;;;;;5.18;4.18;;;;;;;;;;6305162;28;20048;-81
2021/12/05 15:47:07;;;;;;;6.10;4.43;;;;;;;;;;6303609;28;20060;-82
2021/12/05 15:50:16;;;;;;;3.70;2.42;;;;;;;;;;6279059;28;20181;-83
2021/12/05 15:53:19;;;;;;;6.28;2.40;;;;;;;;;;6301139;28;20547;-84
2021/12/05 15:56:23;;;;;;;4.85;2.70;;;;;;;;;;6298645;28;20052;-84
2021/12/05 15:59:32;;;;;;;6.75;3.33;;;;;;;;;;6316225;28;20036;-84
2021/12/05 16:02:34;;;;;;;3.72;2.40;;;;;;;;;;6316393;28;20040;-84
2021/12/05 16:05:38;;;;;;;5.68;2.58;;;;;;;;;;6277301;28;20551;-86
2021/12/05 16:08:41;;;;;;;5.22;2.30;;;;;;;;;;6299320;28;20078;-84
2021/12/05 16:11:44;;;;;;;3.13;1.90;;;;;;;;;;6292752;28;20123;-82
2021/12/05 16:14:49;;;;;;;4.63;2.70;;;;;;;;;;6309958;28;20041;-81
2021/12/05 16:17:58;;;;;;;4.53;3.08;;;;;;;;;;6292638;28;20388;-83
2021/12/05 16:21:05;;;;;;;6.03;3.20;;;;;;;;;;6275132;28;20159;-83
2021/12/05 16:24:13;;;;;;;5.22;3.13;;;;;;;;;;6278285;28;20046;-82
2021/12/05 16:27:15;;;;;;;10.30;5.50;;;;;;;;;;6276490;28;20047;-83
2021/12/05 16:30:26;;;;;;;7.82;4.35;;;;;;;;;;6293301;28;20119;-84
2021/12/05 16:33:29;;;;;;;9.77;4.65;;;;;;;;;;6275266;28;20072;-83
2021/12/05 16:36:37;;;;;;;7.57;3.83;;;;;;;;;;6280418;28;20051;-84
2021/12/05 16:39:42;;;;;;;5.18;3.88;;;;;;;;;;6277266;28;20201;-82
2021/12/05 16:42:44;;;;;;;4.35;2.72;;;;;;;;;;6299094;28;20401;-83
2021/12/05 16:45:46;;;;;;;5.57;3.28;;;;;;;;;;6307039;28;20055;-83
2021/12/05 16:48:48;;;;;;;4.75;2.85;;;;;;;;;;6274893;28;20501;-80
2021/12/05 16:51:56;;;;;;;5.78;3.40;;;;;;;;;;6292616;28;20166;-86
2021/12/05 16:55:09;;;;;;;7.78;3.63;;;;;;;;;;6292587;28;20148;-83
2021/12/05 16:58:17;;;;;;;5.57;3.43;;;;;;;;;;6292561;28;20139;-83
2021/12/05 17:01:20;;;;;;;6.40;3.53;;;;;;;;;;6306689;28;20446;-83
2021/12/05 17:04:43;;;;;;;6.43;4.50;;;;;;;;;;6300376;28;20185;-83
2021/12/05 17:08:13;;;;;;;4.40;2.63;;;;;;;;;;6306668;28;20044;-84
2021/12/05 17:11:18;;;;;;;16.63;5.30;;;;;;;;;;6283572;28;20429;-83
2021/12/05 17:14:23;;;;;;;9.40;3.30;;;;;;;;;;6292443;28;20052;-83
2021/12/05 17:17:32;;;;;;;8.10;3.30;;;;;;;;;;6283075;28;20040;-84
2021/12/05 17:20:37;;;;;;;5.78;3.03;;;;;;;;;;6279688;28;20373;-84
2021/12/05 17:23:52;;;;;;;7.57;2.60;;;;;;;;;;6302442;28;20056;-83
2021/12/05 17:26:59;;;;;;;5.15;3.08;;;;;;;;;;6283798;28;20055;-84
2021/12/05 17:30:04;;;;;;;6.10;2.55;;;;;;;;;;6300712;28;20048;-85
2021/12/05 17:33:06;;;;;;;8.32;4.05;;;;;;;;;;6285359;28;20041;-85
2021/12/05 17:36:28;;;;;;;11.65;5.13;;;;;;;;;;6275080;28;20086;-82
2021/12/05 17:39:33;;;;;;;11.00;4.55;;;;;;;;;;6274926;28;20072;-83
2021/12/05 17:42:35;;;;;;;11.43;5.22;;;;;;;;;;6277957;28;20063;-83
2021/12/05 17:45:38;;;;;;;11.13;4.35;;;;;;;;;;6283198;28;20071;-83
2021/12/05 17:48:41;;;;;;;;;;;;;;;;;;6278148;28;20044;-84
2021/12/05 17:51:45;;;;;;;12.60;6.53;;;;;;;;;;6271732;28;19920;-84
2021/12/05 17:57:57;;;;;;;8.55;4.30;;;;;;;;;;6318532;28;20123;-84
2021/12/05 18:02:41;;;;;;;7.00;4.47;;;;;;;;;;6298359;28;20537;-84
2021/12/05 18:04:21;;;;;;;22.27;11.23;;;;;;;;;;6313563;28;20051;-82
2021/12/05 18:07:23;;;;;;;9.10;5.22;;;;;;;;;;6289028;28;20163;-88
2021/12/05 18:10:27;;;;;;;7.13;4.68;;;;;;;;;;6287719;28;20119;-84
2021/12/05 18:13:33;;;;;;;4.85;3.22;;;;;;;;;;6307537;28;20040;-86
2021/12/05 18:16:36;;;;;;;4.38;2.35;;;;;;;;;;6303823;28;20051;-81
2021/12/05 18:19:38;;;;;;;2.55;2.13;;;;;;;;;;6294238;28;20052;-84
2021/12/05 18:22:41;;;;;;;4.15;2.95;;;;;;;;;;6300241;28;20107;-83
2021/12/05 18:25:42;;;;;;;4.35;3.08;;;;;;;;;;6301566;28;20142;-82
2021/12/05 18:28:49;;;;;;;4.82;3.50;;;;;;;;;;6309153;28;20094;-80
2021/12/05 18:31:51;;;;;;;5.78;4.18;;;;;;;;;;6314821;28;20034;-84
2021/12/05 18:34:53;;;;;;;13.68;7.80;;;;;;;;;;6300075;28;20036;-83
2021/12/05 18:37:56;;;;;;;20.67;12.63;;;;;;;;;;6304656;28;20567;-83
2021/12/05 18:41:02;;;;;;;;;;;;;;;;;;6314114;28;20044;-83
2021/12/05 18:44:13;;;;;;;15.50;8.50;;;;;;;;;;6297944;28;19924;-84
2021/12/05 18:47:15;;;;;;;14.40;8.50;;;;;;;;;;6284372;28;20131;-83
2021/12/05 18:50:19;;;;;;;13.23;7.50;;;;;;;;;;6258383;28;20174;-82
2021/12/05 18:53:22;;;;;;;11.43;6.40;;;;;;;;;;6285829;28;20102;-79
2021/12/05 18:56:25;;;;;;;11.77;6.95;;;;;;;;;;6298864;28;20040;-79
2021/12/05 18:59:31;;;;;;;8.77;5.53;;;;;;;;;;6272806;28;20079;-80
2021/12/05 19:06:06;;;;;;;12.50;7.18;;;;;;;;;;6296701;28;20048;-80
2021/12/05 19:12:20;;;;;;;14.43;7.93;;;;;;;;;;6306925;28;20491;-81
2021/12/05 19:15:23;;;;;;;11.20;6.45;;;;;;;;;;6278393;28;20036;-79
2021/12/05 19:18:25;;;;;;;15.32;8.75;;;;;;;;;;6274366;28;20183;-78
2021/12/05 19:21:27;;;;;;;16.13;9.98;;;;;;;;;;6282884;28;20042;-80
2021/12/05 19:24:29;;;;;;;17.77;10.48;;;;;;;;;;6286770;28;20041;-79
2021/12/05 19:27:31;;;;;;;19.85;11.55;;;;;;;;;;6279300;28;20037;-80
2021/12/05 19:30:46;;;;;;;23.50;11.25;;;;;;;;;;6296341;28;20060;-79
2021/12/05 19:33:48;;;;;;;19.10;10.48;;;;;;;;;;6279053;28;20048;-80
2021/12/05 19:36:50;;;;;;;22.40;12.95;;;;;;;;;;6302560;28;20119;-80
2021/12/05 19:39:52;;;;;;;28.95;10.63;;;;;;;;;;6302198;28;20074;-79
2021/12/05 19:42:57;;;;;;;30.13;12.30;;;;;;;;;;6297497;28;20052;-78
2021/12/05 19:46:00;;;;;;;20.63;10.32;;;;;;;;;;6291170;28;20048;-79
2021/12/05 19:49:04;;;;;;;12.80;7.82;;;;;;;;;;6303040;28;20197;-79
2021/12/05 19:52:06;;;;;;;11.38;6.65;;;;;;;;;;6296012;28;20044;-80
2021/12/05 19:55:09;;;;;;;13.95;7.25;;;;;;;;;;6283845;28;20067;-80
2021/12/05 19:58:11;;;;;;;16.77;9.27;;;;;;;;;;6272897;28;20044;-80
2021/12/05 20:01:13;;;;;;;13.70;7.88;;;;;;;;;;6269258;28;20045;-78
2021/12/05 20:04:16;;;;;;;28.50;12.80;;;;;;;;;;6272332;28;20048;-77
2021/12/05 20:07:17;;;;;;;40.05;16.15;;;;;;;;;;6293421;28;20508;-78
2021/12/05 20:10:22;;;;;;;50.15;16.90;;;;;;;;;;6281488;28;20155;-77
2021/12/05 20:13:24;;;;;;;44.70;15.52;;;;;;;;;;6272900;28;20048;-80
2021/12/05 20:16:27;;;;;;;36.78;12.65;;;;;;;;;;6297085;28;20085;-79
2021/12/05 20:19:30;;;;;;;18.38;8.65;;;;;;;;;;6296975;28;20052;-80
2021/12/05 20:22:32;;;;;;;15.35;8.68;;;;;;;;;;6279250;28;20044;-81
2021/12/05 20:25:35;;;;;;;23.83;11.90;;;;;;;;;;6296753;28;20048;-78
2021/12/05 20:28:37;;;;;;;24.35;12.40;;;;;;;;;;6277625;28;20119;-80
2021/12/05 20:31:41;;;;;;;18.65;9.98;;;;;;;;;;6294700;28;20101;-79
2021/12/05 20:34:44;;;;;;;15.53;8.20;;;;;;;;;;6295955;28;20040;-79
2021/12/05 20:37:54;;;;;;;15.93;8.50;;;;;;;;;;6304093;28;20040;-80
2021/12/05 20:40:56;;;;;;;18.40;8.85;;;;;;;;;;6295650;28;20121;-78
2021/12/05 20:43:58;;;;;;;15.80;8.85;;;;;;;;;;6310607;28;20054;-80
2021/12/05 20:46:59;;;;;;;21.42;11.55;;;;;;;;;;6296735;28;20048;-81
2021/12/05 20:50:05;;;;;;;22.75;11.60;;;;;;;;;;6293848;28;20071;-80
2021/12/05 20:53:08;;;;;;;25.25;12.45;;;;;;;;;;6308154;28;20043;-80
2021/12/05 20:56:12;;;;;;;17.38;10.75;;;;;;;;;;6299287;28;20064;-78
2021/12/05 20:59:14;;;;;;;20.35;11.15;;;;;;;;;;6282964;28;20131;-78
2021/12/05 21:02:16;;;;;;;24.42;14.07;;;;;;;;;;6299405;28;20043;-79
2021/12/05 21:05:21;;;;;;;24.05;13.23;;;;;;;;;;6317889;28;20047;-79
2021/12/05 21:08:25;;;;;;;29.15;14.40;;;;;;;;;;6296460;28;20040;-80
2021/12/05 21:11:29;;;;;;;21.67;13.05;;;;;;;;;;6297317;28;20051;-78
2021/12/05 21:14:32;;;;;;;26.10;11.70;;;;;;;;;;6279662;28;20047;-81
2021/12/05 21:17:33;;;;;;;20.75;11.45;;;;;;;;;;6273279;28;20044;-79
2021/12/05 21:20:36;;;;;;;19.92;10.85;;;;;;;;;;6290832;28;20072;-81
2021/12/05 21:23:38;;;;;;;18.35;11.20;;;;;;;;;;6276153;28;20075;-79
2021/12/05 21:26:41;;;;;;;16.88;10.50;;;;;;;;;;6299188;28;20103;-80
2021/12/05 21:29:43;;;;;;;24.88;12.52;;;;;;;;;;6271074;28;20048;-80
2021/12/05 21:32:56;;;;;;;12.80;7.28;;;;;;;;;;6298233;28;20047;-79
2021/12/05 21:36:00;;;;;;;12.48;6.30;;;;;;;;;;6315493;28;20127;-79
2021/12/05 21:39:03;;;;;;;8.73;5.22;;;;;;;;;;6305887;28;20060;-80
2021/12/05 21:42:05;;;;;;;9.05;5.43;;;;;;;;;;6298263;28;20048;-78
2021/12/05 21:45:07;;;;;;;13.00;6.10;;;;;;;;;;6303948;28;20130;-79
2021/12/05 21:48:12;;;;;;;11.10;6.53;;;;;;;;;;6277024;28;20118;-79
2021/12/05 21:51:15;;;;;;;12.20;6.20;;;;;;;;;;6295683;28;20745;-79
2021/12/05 21:54:17;;;;;;;;;;;;;;;;;;6285456;28;20131;-79
2021/12/05 21:57:19;;;;;;;12.55;6.45;;;;;;;;;;6302596;28;20269;-79
2021/12/05 22:00:24;;;;;;;11.93;5.88;;;;;;;;;;6302930;28;20047;-80
2021/12/05 22:03:26;;;;;;;12.20;6.40;;;;;;;;;;6322259;28;20796;-80
2021/12/05 22:06:29;;;;;;;14.30;6.63;;;;;;;;;;6317697;28;20552;-82
2021/12/05 22:09:31;;;;;;;10.52;6.53;;;;;;;;;;6315263;28;20072;-82
2021/12/05 22:12:33;;;;;;;10.40;6.35;;;;;;;;;;6313885;28;20069;-82
2021/12/05 22:15:36;;;;;;;14.77;7.40;;;;;;;;;;6280478;28;20060;-82
2021/12/05 22:18:44;;;;;;;14.60;8.35;;;;;;;;;;6273495;28;20045;-85
2021/12/05 22:21:47;;;;;;;17.20;9.38;;;;;;;;;;6294243;28;20044;-83
2021/12/05 22:24:49;;;;;;;14.70;8.63;;;;;;;;;;6255621;28;20051;-82
2021/12/05 22:27:51;;;;;;;13.68;8.00;;;;;;;;;;6273521;28;20123;-83
2021/12/05 22:30:52;;;;;;;14.63;8.23;;;;;;;;;;6291116;28;20055;-83
2021/12/05 22:33:54;;;;;;;15.55;7.55;;;;;;;;;;6318783;28;20060;-82
2021/12/05 22:36:56;;;;;;;12.30;7.57;;;;;;;;;;6294701;28;20040;-82
2021/12/05 22:39:58;;;;;;;15.32;8.27;;;;;;;;;;6297287;28;20093;-81
2021/12/05 22:43:00;;;;;;;17.02;9.32;;;;;;;;;;6279372;28;20137;-81
2021/12/05 22:46:03;;;;;;;19.70;10.00;;;;;;;;;;6277158;28;20126;-82
2021/12/05 22:49:05;;;;;;;19.30;9.07;;;;;;;;;;6278315;28;20059;-82
2021/12/05 22:52:07;;;;;;;13.93;7.55;;;;;;;;;;6279994;28;20050;-82
2021/12/05 22:55:10;;;;;;;13.75;8.57;;;;;;;;;;6298300;28;20042;-82
2021/12/05 22:58:12;;;;;;;12.32;7.90;;;;;;;;;;6317892;28;20185;-82
2021/12/05 23:01:20;;;;;;;15.77;8.68;;;;;;;;;;6277004;28;20048;-82
2021/12/05 23:04:25;;;;;;;14.63;7.50;;;;;;;;;;6292873;28;20447;-82
2021/12/05 23:07:27;;;;;;;15.25;8.82;;;;;;;;;;6302681;28;20067;-82
2021/12/05 23:10:29;;;;;;;14.90;8.07;;;;;;;;;;6290087;28;20489;-83
2021/12/05 23:13:52;;;;;;;13.98;7.80;;;;;;;;;;6252777;28;20048;-81
2021/12/05 23:17:03;;;;;;;13.00;7.55;;;;;;;;;;6274894;28;20138;-81
2021/12/05 23:20:06;;;;;;;12.60;6.60;;;;;;;;;;6294523;28;20047;-82
2021/12/05 23:23:07;;;;;;;13.48;6.82;;;;;;;;;;6315789;28;20052;-81
2021/12/05 23:26:10;;;;;;;14.18;7.10;;;;;;;;;;6296995;28;20055;-82
2021/12/05 23:29:15;;;;;;;12.93;6.17;;;;;;;;;;6290224;28;20036;-82
2021/12/05 23:32:18;;;;;;;12.10;6.47;;;;;;;;;;6289906;28;20048;-81
2021/12/05 23:35:21;;;;;;;12.38;6.85;;;;;;;;;;6291714;28;20040;-82
2021/12/05 23:38:24;;;;;;;11.10;6.70;;;;;;;;;;6297591;28;20054;-82
2021/12/05 23:41:26;;;;;;;12.60;6.97;;;;;;;;;;6297031;28;20047;-82
2021/12/05 23:44:27;;;;;;;11.85;7.43;;;;;;;;;;6282022;28;20040;-81
2021/12/05 23:47:29;;;;;;;13.65;7.85;;;;;;;;;;6274565;28;20543;-81
2021/12/05 23:50:36;;;;;;;11.38;6.65;;;;;;;;;;6273858;28;20047;-81
2021/12/05 23:53:37;;;;;;;12.20;7.65;;;;;;;;;;6307241;28;20051;-82
2021/12/05 23:56:39;;;;;;;10.77;6.43;;;;;;;;;;6298787;28;20048;-81
2021/12/05 23:59:41;;;;;;;13.95;7.45;;;;;;;;;;6303154;28;20055;-81
